createdAt,value
2018-06-13T00:00:19.104Z,97614.00
2018-06-13T00:02:48.274Z,97617.43
2018-06-13T00:05:17.267Z,97623.34
2018-06-13T00:07:46.442Z,97622.25
2018-06-13T00:10:15.613Z,97625.93
2018-06-13T00:12:44.775Z,97621.48
2018-06-13T00:15:13.941Z,97624.39
2018-06-13T00:17:43.120Z,97618.75
2018-06-13T00:20:12.297Z,97619.81
2018-06-13T00:22:41.465Z,97621.06
2018-06-13T00:25:10.649Z,97626.81
2018-06-13T00:27:39.816Z,97627.30
2018-06-13T00:30:08.992Z,97628.19
2018-06-13T00:32:38.160Z,97624.74
2018-06-13T00:35:07.328Z,97614.53
2018-06-13T00:37:36.498Z,97623.47
2018-06-13T00:40:05.666Z,97626.48
2018-06-13T00:42:34.829Z,97629.59
2018-06-13T00:45:04.004Z,97627.77
2018-06-13T00:47:33.178Z,97625.47
2018-06-13T00:50:02.359Z,97627.56
2018-06-13T00:52:31.522Z,97619.74
2018-06-13T00:55:00.700Z,97627.23
2018-06-13T00:57:29.628Z,97628.86
2018-06-13T00:59:58.804Z,97623.32
2018-06-13T01:02:27.997Z,97630.92
2018-06-13T01:04:57.192Z,97624.68
2018-06-13T01:07:26.399Z,97628.64
2018-06-13T01:09:55.612Z,97626.06
2018-06-13T01:12:25.517Z,97625.01
2018-06-13T01:14:54.713Z,97626.64
2018-06-13T01:17:23.925Z,97623.65
2018-06-13T01:19:53.121Z,97617.25
2018-06-13T01:22:22.323Z,97620.33
2018-06-13T01:24:51.520Z,97626.00
2018-06-13T01:27:20.731Z,97628.16
2018-06-13T01:29:49.913Z,97626.81
2018-06-13T01:32:19.111Z,97620.34
2018-06-13T01:34:48.304Z,97622.89
2018-06-13T01:37:17.509Z,97617.80
2018-06-13T01:39:46.705Z,97616.30
2018-06-13T01:42:15.917Z,97619.65
2018-06-13T01:44:45.109Z,97618.14
2018-06-13T01:47:14.312Z,97616.86
2018-06-13T01:49:43.508Z,97616.81
2018-06-13T01:52:12.710Z,97609.63
2018-06-13T01:54:41.888Z,97618.38
2018-06-13T01:57:11.097Z,97612.48
2018-06-13T01:59:40.293Z,97619.24
2018-06-13T02:02:09.664Z,97616.03
2018-06-13T02:04:38.839Z,97619.23
2018-06-13T02:07:08.013Z,97613.86
2018-06-13T02:09:37.198Z,97616.41
2018-06-13T02:12:06.376Z,97610.44
2018-06-13T02:14:35.556Z,97615.95
2018-06-13T02:17:04.717Z,97608.48
2018-06-13T02:19:33.883Z,97603.78
2018-06-13T02:22:03.049Z,97612.52
2018-06-13T02:24:32.228Z,97611.53
2018-06-13T02:27:01.408Z,97615.58
2018-06-13T02:29:30.347Z,97618.89
2018-06-13T02:31:59.521Z,97624.58
2018-06-13T02:34:28.697Z,97624.13
2018-06-13T02:36:57.876Z,97626.31
2018-06-13T02:39:27.057Z,97627.94
2018-06-13T02:41:56.249Z,97636.09
2018-06-13T02:44:25.434Z,97623.42
2018-06-13T02:46:54.600Z,97627.27
2018-06-13T02:49:23.778Z,97626.53
2018-06-13T02:51:52.956Z,97628.70
2018-06-13T02:54:22.136Z,97627.83
2018-06-13T02:56:51.305Z,97627.19
2018-06-13T02:59:20.474Z,97638.72
2018-06-13T03:01:49.773Z,97637.81
2018-06-13T03:04:18.968Z,97634.58
2018-06-13T03:06:48.188Z,97634.95
2018-06-13T03:09:17.139Z,97645.11
2018-06-13T03:11:46.332Z,97636.20
2018-06-13T03:14:15.536Z,97640.09
2018-06-13T03:16:44.765Z,97646.33
2018-06-13T03:19:13.949Z,97649.81
2018-06-13T03:21:43.161Z,97646.99
2018-06-13T03:24:12.366Z,97647.95
2018-06-13T03:26:41.564Z,97643.30
2018-06-13T03:29:10.762Z,97655.50
2018-06-13T03:31:39.973Z,97655.34
2018-06-13T03:34:09.160Z,97662.76
2018-06-13T03:36:38.361Z,97659.45
2018-06-13T03:39:09.477Z,97665.68
2018-06-13T03:41:38.681Z,97663.64
2018-06-13T03:44:07.872Z,97664.65
2018-06-13T03:46:36.832Z,97672.33
2018-06-13T03:49:06.033Z,97671.78
2018-06-13T03:51:35.244Z,97670.75
2018-06-13T03:54:04.441Z,97667.72
2018-06-13T03:56:33.657Z,97671.00
2018-06-13T03:59:02.860Z,97671.91
2018-06-13T04:01:31.833Z,97678.98
2018-06-13T04:04:01.028Z,97674.12
2018-06-13T04:06:30.234Z,97667.63
2018-06-13T04:08:59.473Z,97675.25
2018-06-13T04:11:28.687Z,97674.44
2018-06-13T04:13:57.895Z,97689.61
2018-06-13T04:16:27.101Z,97689.25
2018-06-13T04:18:56.329Z,97690.47
2018-06-13T04:21:25.523Z,97688.25
2018-06-13T04:23:54.492Z,97692.90
2018-06-13T04:26:23.694Z,97694.98
2018-06-13T04:28:52.901Z,97690.75
2018-06-13T04:31:22.097Z,97693.22
2018-06-13T04:33:51.309Z,97690.30
2018-06-13T04:36:20.264Z,97687.09
2018-06-13T04:38:49.456Z,97691.20
2018-06-13T04:41:18.656Z,97695.77
2018-06-13T04:43:47.868Z,97698.36
2018-06-13T04:46:17.073Z,97697.48
2018-06-13T04:48:46.276Z,97692.17
2018-06-13T04:51:15.466Z,97694.40
2018-06-13T04:53:44.668Z,97692.55
2018-06-13T04:56:13.852Z,97698.15
2018-06-13T04:58:43.081Z,97702.77
2018-06-13T05:01:12.305Z,97708.23
2018-06-13T05:03:41.508Z,97710.95
2018-06-13T05:06:10.689Z,97708.43
2018-06-13T05:08:39.903Z,97704.58
2018-06-13T05:11:09.091Z,97714.64
2018-06-13T05:13:38.276Z,97716.93
2018-06-13T05:16:07.479Z,97712.23
2018-06-13T05:18:36.672Z,97717.52
2018-06-13T05:21:05.894Z,97716.64
2018-06-13T05:23:35.094Z,97716.36
2018-06-13T05:26:04.291Z,97716.66
2018-06-13T05:28:33.506Z,97720.48
2018-06-13T05:31:02.689Z,97724.19
2018-06-13T05:33:31.901Z,97725.34
2018-06-13T05:36:01.097Z,97725.39
2018-06-13T05:38:30.516Z,97728.81
2018-06-13T05:40:59.713Z,97723.77
2018-06-13T05:43:28.913Z,97730.08
2018-06-13T05:45:58.124Z,97735.18
2018-06-13T05:48:27.333Z,97735.47
2018-06-13T05:50:56.557Z,97735.69
2018-06-13T05:53:25.760Z,97739.00
2018-06-13T05:55:54.962Z,97736.82
2018-06-13T12:43:17.097Z,97894.20
2018-06-13T13:03:47.441Z,97896.58
2018-06-13T13:46:11.723Z,97915.97
2018-06-13T15:42:29.333Z,97968.81
2018-06-13T16:43:29.509Z,97994.73
2018-06-13T19:17:41.068Z,98139.44
2018-06-13T19:20:10.555Z,98139.82
2018-06-13T19:22:39.827Z,98140.31
2018-06-13T19:25:09.044Z,98140.15
2018-06-13T19:27:38.249Z,98144.98
2018-06-13T19:30:07.471Z,98144.20
2018-06-13T19:32:36.721Z,98150.95
2018-06-13T19:35:05.998Z,98148.08
2018-06-13T19:37:35.261Z,98147.69
2018-06-13T19:40:04.554Z,98151.89
2018-06-13T19:42:33.942Z,98163.14
2018-06-13T19:45:03.043Z,98157.94
2018-06-13T19:47:37.484Z,98165.58
2018-06-13T19:50:06.724Z,98165.92
2018-06-13T19:53:44.112Z,98167.64
2018-06-13T19:56:14.494Z,98175.84
2018-06-13T19:58:43.756Z,98175.51
2018-06-13T20:01:13.014Z,98178.94
2018-06-13T20:03:47.653Z,98183.30
2018-06-13T20:06:17.036Z,98185.84
2018-06-13T20:08:46.484Z,98173.48
2018-06-13T20:11:15.865Z,98181.58
2018-06-13T20:13:50.656Z,98191.27
2018-06-13T20:16:42.325Z,98193.55
2018-06-13T20:19:16.869Z,98189.91
2018-06-13T20:21:46.462Z,98200.05
2018-06-13T20:24:15.812Z,98205.55
2018-06-13T20:26:50.316Z,98197.12
2018-06-13T20:29:24.611Z,98198.83
2018-06-13T20:31:54.341Z,98198.88
2018-06-13T20:34:23.692Z,98200.59
2018-06-13T20:36:52.957Z,98195.55
2018-06-13T20:39:22.197Z,98193.00
2018-06-13T20:41:51.735Z,98197.61
2018-06-13T20:44:21.176Z,98193.78
2018-06-13T20:46:50.965Z,98189.62
2018-06-13T20:49:20.286Z,98192.60
2018-06-13T20:51:49.648Z,98190.55
2018-06-13T20:54:19.169Z,98193.92
2018-06-13T20:56:48.479Z,98187.59
2018-06-13T20:59:17.726Z,98188.34
2018-06-13T21:01:46.989Z,98188.00
2018-06-13T21:04:16.288Z,98188.92
2018-06-13T21:06:45.678Z,98193.19
2018-06-13T21:09:15.023Z,98195.86
2018-06-13T21:11:44.342Z,98194.19
2018-06-13T21:14:13.701Z,98192.56
2018-06-13T21:16:42.993Z,98196.34
2018-06-13T21:19:12.287Z,98204.77
2018-06-13T21:21:41.554Z,98201.44
2018-06-13T21:24:10.977Z,98200.68
2018-06-13T21:29:37.549Z,98213.86
2018-06-13T21:32:06.973Z,98205.39
2018-06-13T21:34:36.255Z,98197.30
2018-06-13T21:37:05.561Z,98195.55
2018-06-13T21:39:34.888Z,98192.61
2018-06-13T21:42:04.548Z,98197.70
2018-06-13T21:44:33.937Z,98204.55
2018-06-13T21:47:03.016Z,98208.89
2018-06-13T21:49:32.276Z,98212.30
2018-06-13T21:52:01.651Z,98211.87
2018-06-13T21:54:30.973Z,98215.72
2018-06-13T21:57:00.568Z,98219.10
2018-06-13T21:59:29.999Z,98220.38
2018-06-13T22:01:59.470Z,98225.78
2018-06-13T22:04:28.948Z,98222.84
2018-06-13T22:06:58.506Z,98222.41
2018-06-13T22:09:28.070Z,98222.44
2018-06-13T22:11:57.431Z,98223.28
2018-06-13T22:14:28.420Z,98224.00
2018-06-13T22:16:58.965Z,98219.38
2018-06-13T22:19:28.740Z,98219.38
2018-06-13T22:21:58.866Z,98222.36
2018-06-13T22:24:28.389Z,98221.61
2018-06-13T22:26:58.361Z,98224.98
2018-06-13T22:29:28.065Z,98221.64
2018-06-13T22:31:57.664Z,98227.14
2018-06-13T22:34:26.911Z,98226.73
2018-06-13T22:36:56.173Z,98229.48
2018-06-13T22:39:25.453Z,98230.80
2018-06-13T22:41:54.621Z,98233.37
2018-06-13T22:44:23.837Z,98229.83
2018-06-13T22:46:53.036Z,98226.45
2018-06-13T22:49:22.255Z,98225.61
2018-06-13T22:51:51.466Z,98220.64
2018-06-13T22:54:20.687Z,98218.55
2018-06-13T22:56:49.643Z,98214.73
2018-06-13T22:59:18.867Z,98216.13
2018-06-13T23:01:47.851Z,98218.73
2018-06-13T23:04:17.048Z,98219.14
2018-06-13T23:06:46.269Z,98211.47
2018-06-13T23:09:15.471Z,98206.81
2018-06-13T23:11:44.699Z,98211.47
2018-06-13T23:14:13.912Z,98213.94
2018-06-13T23:16:43.110Z,98213.06
2018-06-13T23:19:12.328Z,98212.66
2018-06-13T23:21:41.531Z,98211.91
2018-06-13T23:24:10.746Z,98214.97
2018-06-13T23:26:39.984Z,98218.37
2018-06-13T23:29:09.204Z,98219.17
2018-06-13T23:31:38.408Z,98213.30
2018-06-13T23:34:07.619Z,98210.31
2018-06-13T23:36:36.857Z,98213.30
2018-06-13T23:39:08.160Z,98207.41
2018-06-13T23:41:37.407Z,98204.09
2018-06-13T23:44:06.629Z,98206.64
2018-06-13T23:46:35.968Z,98202.46
2018-06-13T23:49:05.235Z,98202.97
2018-06-13T23:51:34.471Z,98208.12
2018-06-13T23:54:03.443Z,98204.70
2018-06-13T23:56:32.671Z,98200.92
2018-06-13T23:59:01.629Z,98204.30
